createdAt,value
2016-10-27T00:00:46.292Z,9.09
2016-10-27T00:01:46.267Z,9.15
2016-10-27T00:02:46.253Z,9.16
2016-10-27T00:03:46.237Z,9.16
2016-10-27T00:04:46.221Z,9.13
2016-10-27T00:05:46.519Z,9.12
2016-10-27T00:06:46.191Z,9.2
2016-10-27T00:07:46.172Z,9.12
2016-10-27T00:08:46.472Z,9.15
2016-10-27T00:09:46.141Z,9.13
2016-10-27T00:10:46.142Z,9.12
2016-10-27T00:11:46.142Z,9.16
2016-10-27T00:12:46.097Z,9.2
2016-10-27T00:13:46.076Z,9.2
2016-10-27T00:14:46.061Z,9.2
2016-10-27T00:15:46.355Z,9.25
2016-10-27T00:16:46.343Z,9.16
2016-10-27T00:17:46.025Z,9.16
2016-10-27T00:18:46.005Z,9.28
2016-10-27T00:19:45.980Z,9.28
2016-10-27T00:20:45.967Z,9.3
2016-10-27T00:21:45.949Z,9.3
2016-10-27T00:22:45.941Z,9.34
2016-10-27T00:23:45.920Z,9.39
2016-10-27T00:24:46.219Z,9.38
2016-10-27T00:25:45.887Z,9.3
2016-10-27T00:26:45.874Z,9.35
2016-10-27T00:27:45.860Z,9.38
2016-10-27T00:28:45.847Z,9.35
2016-10-27T00:29:46.139Z,9.39
2016-10-27T00:30:46.011Z,9.39
2016-10-27T00:31:45.800Z,9.43
2016-10-27T00:32:45.787Z,9.45
2016-10-27T00:33:45.763Z,9.42
2016-10-27T00:34:45.748Z,9.46
2016-10-27T00:35:45.758Z,9.46
2016-10-27T00:36:45.723Z,9.58
2016-10-27T00:37:45.702Z,9.57
2016-10-27T00:38:45.689Z,9.56
2016-10-27T00:39:45.984Z,9.53
2016-10-27T00:40:45.650Z,9.64
2016-10-27T00:41:45.642Z,9.6
2016-10-27T00:42:45.628Z,9.6
2016-10-27T00:43:45.658Z,9.57
2016-10-27T00:44:45.596Z,9.57
2016-10-27T00:45:45.575Z,9.67
2016-10-27T00:46:45.560Z,9.66
2016-10-27T00:47:45.546Z,9.63
2016-10-27T00:48:45.530Z,9.75
2016-10-27T00:49:45.514Z,9.73
2016-10-27T00:50:45.497Z,9.73
2016-10-27T00:51:45.808Z,9.76
2016-10-27T00:52:45.477Z,9.71
2016-10-27T00:53:45.452Z,9.76
2016-10-27T00:54:45.437Z,9.76
2016-10-27T00:55:45.423Z,9.68
2016-10-27T00:56:45.404Z,9.73
2016-10-27T00:57:45.703Z,9.71
2016-10-27T00:58:45.374Z,9.75
2016-10-27T00:59:45.366Z,9.73
2016-10-27T01:00:45.345Z,9.73
2016-10-27T01:01:45.328Z,9.76
2016-10-27T01:02:45.317Z,9.73
2016-10-27T01:03:45.299Z,9.78
2016-10-27T01:04:45.286Z,9.7
2016-10-27T01:05:45.265Z,9.81
2016-10-27T01:06:45.254Z,9.76
2016-10-27T01:07:45.238Z,9.78
2016-10-27T01:08:45.221Z,9.81
2016-10-27T01:09:45.212Z,9.78
2016-10-27T01:10:45.220Z,9.79
2016-10-27T01:11:45.171Z,9.73
2016-10-27T01:12:45.157Z,9.78
2016-10-27T01:13:45.140Z,9.73
2016-10-27T01:14:45.131Z,9.88
2016-10-27T01:15:45.119Z,9.82
2016-10-27T01:16:45.421Z,9.85
2016-10-27T01:17:45.085Z,9.91
2016-10-27T01:18:45.074Z,9.86
2016-10-27T01:19:45.055Z,9.96
2016-10-27T01:20:45.037Z,9.88
2016-10-27T01:21:45.027Z,9.85
2016-10-27T01:22:45.016Z,9.88
2016-10-27T01:23:44.988Z,9.89
2016-10-27T01:24:44.976Z,9.88
2016-10-27T01:25:44.960Z,9.91
2016-10-27T01:26:44.948Z,9.93
2016-10-27T01:27:44.934Z,9.91
2016-10-27T01:28:44.915Z,9.91
2016-10-27T01:29:44.907Z,9.86
2016-10-27T01:30:44.887Z,9.91
2016-10-27T01:31:45.181Z,9.86
2016-10-27T01:32:44.858Z,9.97
2016-10-27T01:33:44.839Z,9.88
2016-10-27T01:34:44.825Z,9.94
2016-10-27T01:35:45.122Z,9.88
2016-10-27T01:36:44.794Z,9.96
2016-10-27T01:37:44.784Z,9.91
2016-10-27T01:38:44.768Z,9.96
2016-10-27T01:39:44.752Z,9.96
2016-10-27T01:40:44.732Z,9.94
2016-10-27T01:41:44.752Z,9.94
2016-10-27T01:42:44.703Z,9.93
2016-10-27T01:43:45.002Z,9.97
2016-10-27T01:44:44.874Z,9.99
2016-10-27T01:45:44.661Z,10.03
2016-10-27T01:46:44.647Z,10.03
2016-10-27T01:47:44.635Z,9.88
2016-10-27T01:48:44.619Z,9.93
2016-10-27T01:49:45.228Z,9.86
2016-10-27T01:50:44.585Z,9.97
2016-10-27T01:51:44.571Z,9.91
2016-10-27T01:52:44.864Z,9.89
2016-10-27T01:53:44.944Z,9.93
2016-10-27T01:54:44.517Z,9.97
2016-10-27T01:55:44.510Z,9.94
2016-10-27T01:56:44.490Z,10.01
2016-10-27T01:57:44.786Z,9.94
2016-10-27T01:58:44.464Z,9.93
2016-10-27T01:59:44.449Z,9.96
2016-10-27T02:00:44.432Z,9.96
2016-10-27T02:01:44.413Z,9.94
2016-10-27T02:02:44.397Z,9.93
2016-10-27T02:03:44.383Z,10
2016-10-27T02:04:44.379Z,9.97
2016-10-27T02:05:44.671Z,9.93
2016-10-27T02:06:44.342Z,10.01
2016-10-27T02:07:44.640Z,10
2016-10-27T02:08:44.308Z,10.04
2016-10-27T02:09:44.301Z,9.91
2016-10-27T02:10:44.283Z,10
2016-10-27T02:11:44.267Z,9.94
2016-10-27T02:12:44.580Z,9.97
2016-10-27T02:13:44.554Z,10
2016-10-27T02:14:44.542Z,10.01
2016-10-27T02:15:44.204Z,10
2016-10-27T02:16:44.192Z,10.04
2016-10-27T02:17:44.174Z,9.96
2016-10-27T02:18:44.159Z,10.09
2016-10-27T02:19:44.143Z,10.12
2016-10-27T02:20:44.439Z,10.03
2016-10-27T02:21:44.422Z,10.06
2016-10-27T02:22:44.094Z,10.04
2016-10-27T02:23:44.393Z,10.06
2016-10-27T02:24:44.066Z,10.06
2016-10-27T02:25:44.052Z,10
2016-10-27T02:26:44.356Z,10.04
2016-10-27T02:27:44.028Z,10.18
2016-10-27T02:28:44.040Z,10.18
2016-10-27T02:29:43.995Z,10.14
2016-10-27T02:30:44.290Z,10.17
2016-10-27T02:31:43.970Z,10.21
2016-10-27T02:32:43.989Z,10.15
2016-10-27T02:33:43.957Z,10.17
2016-10-27T02:34:43.921Z,10.19
2016-10-27T02:35:43.923Z,10.15
2016-10-27T02:36:44.200Z,10.22
2016-10-27T02:37:43.871Z,10.19
2016-10-27T02:38:44.504Z,10.24
2016-10-27T02:39:43.852Z,10.17
2016-10-27T02:40:44.152Z,10.21
2016-10-27T02:41:43.814Z,10.21
2016-10-27T02:42:43.796Z,10.24
2016-10-27T02:43:43.792Z,10.19
2016-10-27T02:44:43.774Z,10.22
2016-10-27T02:45:44.065Z,10.18
2016-10-27T02:46:43.742Z,10.19
2016-10-27T02:47:43.728Z,10.15
2016-10-27T02:48:43.713Z,10.24
2016-10-27T02:49:43.702Z,10.18
2016-10-27T02:50:43.685Z,10.15
2016-10-27T02:51:43.681Z,10.21
2016-10-27T02:52:43.652Z,10.14
2016-10-27T02:53:43.638Z,10.15
2016-10-27T02:54:43.627Z,10.04
2016-10-27T02:55:43.609Z,10.1
2016-10-27T02:56:43.591Z,10.22
2016-10-27T02:57:43.622Z,10.18
2016-10-27T02:58:44.243Z,10.21
2016-10-27T02:59:43.550Z,10.19
2016-10-27T03:00:43.536Z,10.21
2016-10-27T03:01:43.515Z,10.15
2016-10-27T03:02:43.815Z,10.19
2016-10-27T03:03:43.808Z,10.19
2016-10-27T03:04:43.467Z,10.19
2016-10-27T03:05:43.491Z,10.15
2016-10-27T03:06:43.756Z,10.18
2016-10-27T03:07:44.054Z,10.17
2016-10-27T03:08:43.727Z,10.28
2016-10-27T03:09:43.915Z,10.3
2016-10-27T03:10:43.430Z,10.22
2016-10-27T03:11:43.372Z,10.25
2016-10-27T03:12:43.668Z,10.22
2016-10-27T03:13:43.335Z,10.32
2016-10-27T03:14:43.320Z,10.26
2016-10-27T03:15:43.307Z,10.25
2016-10-27T03:16:43.296Z,10.28
2016-10-27T03:17:43.280Z,10.24
2016-10-27T03:18:43.578Z,10.26
2016-10-27T03:19:43.245Z,10.25
2016-10-27T03:20:43.554Z,10.3
2016-10-27T03:21:43.227Z,10.33
2016-10-27T03:22:43.213Z,10.24
2016-10-27T03:23:43.195Z,10.3
2016-10-27T03:24:43.190Z,10.26
2016-10-27T03:25:43.162Z,10.28
2016-10-27T03:26:43.469Z,10.36
2016-10-27T03:27:43.133Z,10.28
2016-10-27T03:28:43.124Z,10.28
2016-10-27T03:29:43.419Z,10.26
2016-10-27T03:30:43.089Z,10.37
2016-10-27T03:31:43.078Z,10.19
2016-10-27T03:32:43.064Z,10.3
2016-10-27T03:33:43.044Z,10.37
2016-10-27T03:34:43.347Z,10.3
2016-10-27T03:35:43.017Z,10.37
2016-10-27T03:36:43.002Z,10.32
2016-10-27T03:37:42.981Z,10.3
2016-10-27T03:38:42.963Z,10.37
2016-10-27T03:39:42.954Z,10.32
2016-10-27T03:40:42.937Z,10.36
2016-10-27T03:41:42.926Z,10.4
2016-10-27T03:42:42.911Z,10.36
2016-10-27T03:43:42.935Z,10.37
2016-10-27T03:44:42.884Z,10.4
2016-10-27T03:45:42.863Z,10.4
2016-10-27T03:46:42.854Z,10.43
2016-10-27T03:47:42.837Z,10.4
2016-10-27T03:48:42.820Z,10.53
2016-10-27T03:49:43.152Z,10.51
2016-10-27T03:50:42.788Z,10.52
2016-10-27T03:51:42.779Z,10.47
2016-10-27T03:52:42.760Z,10.47
2016-10-27T03:53:42.948Z,10.51
2016-10-27T03:54:42.739Z,10.47
2016-10-27T03:55:42.712Z,10.53
2016-10-27T03:56:42.699Z,10.52
2016-10-27T03:57:42.683Z,10.53
2016-10-27T03:58:42.671Z,10.55
2016-10-27T03:59:42.967Z,10.52
2016-10-27T04:00:42.642Z,10.52
2016-10-27T04:01:42.631Z,10.55
2016-10-27T04:02:42.608Z,10.59
2016-10-27T04:03:42.595Z,10.56
2016-10-27T04:04:42.584Z,10.56
2016-10-27T04:05:42.877Z,10.56
2016-10-27T04:06:42.866Z,10.53
2016-10-27T04:07:42.531Z,10.59
2016-10-27T04:08:42.525Z,10.65
2016-10-27T04:09:42.508Z,10.63
2016-10-27T04:10:42.492Z,10.58
2016-10-27T04:11:42.472Z,10.65
2016-10-27T04:12:42.775Z,10.65
2016-10-27T04:13:42.761Z,10.6
2016-10-27T04:14:42.438Z,10.59
2016-10-27T04:15:42.417Z,10.7
2016-10-27T04:16:42.453Z,10.66
2016-10-27T04:17:42.384Z,10.71
2016-10-27T04:18:42.374Z,10.65
2016-10-27T04:19:42.355Z,10.74
2016-10-27T04:20:42.340Z,10.63
2016-10-27T04:21:42.639Z,10.77
2016-10-27T04:22:42.355Z,10.7
2016-10-27T04:23:42.294Z,10.74
2016-10-27T04:24:42.289Z,10.8
2016-10-27T04:25:42.268Z,10.7
2016-10-27T04:26:42.251Z,10.68
2016-10-27T04:27:42.550Z,10.73
2016-10-27T04:28:42.222Z,10.7
2016-10-27T04:29:42.214Z,10.7
2016-10-27T04:30:42.199Z,10.7
2016-10-27T04:31:42.177Z,10.73
2016-10-27T04:32:42.478Z,10.7
2016-10-27T04:33:42.150Z,10.74
2016-10-27T04:34:42.139Z,10.73
2016-10-27T04:35:42.123Z,10.76
2016-10-27T04:36:42.156Z,10.76
2016-10-27T04:37:42.088Z,10.71
2016-10-27T04:38:42.392Z,10.73
2016-10-27T04:39:42.062Z,10.78
2016-10-27T04:40:42.053Z,10.8
2016-10-27T04:41:42.029Z,10.84
2016-10-27T04:42:42.021Z,10.78
2016-10-27T04:43:42.007Z,10.8
2016-10-27T04:44:41.989Z,10.71
2016-10-27T04:45:42.290Z,10.8
2016-10-27T04:46:41.965Z,10.77
2016-10-27T04:47:41.948Z,10.76
2016-10-27T04:48:41.929Z,10.68
2016-10-27T04:49:41.915Z,10.73
2016-10-27T04:50:41.907Z,10.71
2016-10-27T04:51:41.883Z,10.76
2016-10-27T04:52:41.870Z,10.73
2016-10-27T04:53:41.857Z,10.71
2016-10-27T04:54:41.840Z,10.71
2016-10-27T04:55:42.152Z,10.74
2016-10-27T04:56:41.814Z,10.71
2016-10-27T04:57:41.799Z,10.73
2016-10-27T04:58:41.798Z,10.76
2016-10-27T04:59:41.768Z,10.62
2016-10-27T05:00:41.769Z,10.73
2016-10-27T05:01:42.067Z,10.63
2016-10-27T05:02:42.678Z,10.63
2016-10-27T05:03:41.733Z,10.55
2016-10-27T05:04:41.696Z,10.6
2016-10-27T05:05:41.682Z,10.6
2016-10-27T05:06:41.665Z,10.52
2016-10-27T05:07:41.649Z,10.56
2016-10-27T05:08:41.635Z,10.55
2016-10-27T05:09:41.623Z,10.56
2016-10-27T05:10:41.614Z,10.53
2016-10-27T05:11:41.604Z,10.53
2016-10-27T05:12:41.681Z,10.58
2016-10-27T05:13:41.885Z,10.53
2016-10-27T05:14:41.545Z,10.55
2016-10-27T05:15:41.539Z,10.55
2016-10-27T05:16:41.515Z,10.52
2016-10-27T05:17:41.504Z,10.59
2016-10-27T05:18:41.488Z,10.52
2016-10-27T05:19:41.480Z,10.56
2016-10-27T05:20:41.460Z,10.53
2016-10-27T05:21:41.493Z,10.58
2016-10-27T05:22:41.424Z,10.47
2016-10-27T05:23:41.409Z,10.52
2016-10-27T05:24:41.397Z,10.59
2016-10-27T05:25:41.698Z,10.52
2016-10-27T05:26:41.366Z,10.56
2016-10-27T05:27:41.349Z,10.44
2016-10-27T05:28:41.649Z,10.51
2016-10-27T05:29:41.322Z,10.51
2016-10-27T05:30:41.306Z,10.52
2016-10-27T05:31:41.333Z,10.52
2016-10-27T05:32:41.269Z,10.53
2016-10-27T05:33:41.260Z,10.55
2016-10-27T05:34:41.250Z,10.55
2016-10-27T05:35:41.545Z,10.55
2016-10-27T05:36:41.526Z,10.55
2016-10-27T05:37:41.194Z,10.56
2016-10-27T05:38:41.492Z,10.59
2016-10-27T05:39:41.482Z,10.59
2016-10-27T05:40:41.154Z,10.56
2016-10-27T05:41:41.458Z,10.51
2016-10-27T05:42:41.125Z,10.55
2016-10-27T05:43:41.423Z,10.56
2016-10-27T05:44:41.092Z,10.58
2016-10-27T05:45:41.083Z,10.58
2016-10-27T05:46:41.063Z,10.55
2016-10-27T05:47:41.042Z,10.53
2016-10-27T05:48:41.346Z,10.74
2016-10-27T05:49:41.017Z,10.56
2016-10-27T05:50:41.015Z,10.55
2016-10-27T05:51:40.987Z,10.58
2016-10-27T05:52:41.021Z,10.59
2016-10-27T05:53:41.676Z,10.55
2016-10-27T05:54:40.946Z,10.63
2016-10-27T05:55:40.927Z,10.55
2016-10-27T05:56:40.911Z,10.55
2016-10-27T05:57:41.213Z,10.62
2016-10-27T05:58:41.197Z,10.59
2016-10-27T05:59:40.874Z,10.53
2016-10-27T06:00:40.851Z,10.66
2016-10-27T06:01:40.879Z,10.6
2016-10-27T06:02:41.142Z,10.7
2016-10-27T06:03:41.126Z,10.53
2016-10-27T06:04:40.793Z,10.66
2016-10-27T06:05:40.791Z,10.62
2016-10-27T06:06:40.761Z,10.66
2016-10-27T06:07:40.743Z,10.62
2016-10-27T06:08:40.746Z,10.65
2016-10-27T06:09:40.717Z,10.62
2016-10-27T06:10:40.705Z,10.71
2016-10-27T06:11:41.335Z,10.66
2016-10-27T06:12:40.986Z,10.68
2016-10-27T06:13:40.655Z,10.74
2016-10-27T06:14:40.642Z,10.65
2016-10-27T06:15:41.323Z,10.78
2016-10-27T06:16:40.647Z,10.77
2016-10-27T06:17:40.930Z,10.74
2016-10-27T06:18:40.585Z,10.78
2016-10-27T06:19:40.885Z,10.71
2016-10-27T06:20:40.557Z,10.73
2016-10-27T06:21:40.543Z,10.71
2016-10-27T06:22:40.534Z,10.71
2016-10-27T06:23:40.859Z,10.73
2016-10-27T06:24:40.526Z,10.7
2016-10-27T06:25:40.794Z,10.66
2016-10-27T06:26:40.462Z,10.7
2016-10-27T06:27:40.449Z,10.71
2016-10-27T06:28:40.750Z,10.8
2016-10-27T06:29:40.420Z,10.76
2016-10-27T06:30:40.400Z,10.77
2016-10-27T06:31:40.705Z,10.71
2016-10-27T06:32:40.380Z,10.81
2016-10-27T06:33:40.673Z,10.76
2016-10-27T06:34:40.347Z,10.8
2016-10-27T06:35:40.325Z,10.83
2016-10-27T06:36:40.316Z,10.86
2016-10-27T06:37:40.300Z,10.83
2016-10-27T06:38:40.624Z,10.81
2016-10-27T06:39:40.282Z,10.84
2016-10-27T06:40:40.267Z,10.8
2016-10-27T06:41:40.558Z,10.86
2016-10-27T06:42:40.224Z,10.76
2016-10-27T06:43:40.213Z,10.86
2016-10-27T06:44:40.191Z,10.88
2016-10-27T06:45:40.183Z,10.89
2016-10-27T06:46:40.165Z,10.86
2016-10-27T06:47:40.144Z,10.92
2016-10-27T06:48:40.133Z,10.94
2016-10-27T06:49:40.117Z,10.84
2016-10-27T06:50:40.103Z,10.94
2016-10-27T06:51:40.401Z,10.98
2016-10-27T06:52:40.086Z,10.92
2016-10-27T06:53:40.383Z,10.91
2016-10-27T06:54:40.060Z,11.01
2016-10-27T06:55:40.346Z,10.92
2016-10-27T06:56:40.329Z,10.91
2016-10-27T06:57:40.001Z,10.91
2016-10-27T06:58:40.303Z,11.01
2016-10-27T06:59:39.980Z,10.99
2016-10-27T07:00:40.272Z,11.01
2016-10-27T07:01:40.571Z,10.98
2016-10-27T07:02:39.935Z,10.95
2016-10-27T07:03:39.936Z,10.99
2016-10-27T07:04:40.537Z,10.98
2016-10-27T07:05:39.888Z,11.01
2016-10-27T07:06:40.177Z,10.99
2016-10-27T07:07:39.847Z,11.09
2016-10-27T07:08:40.150Z,11.09
2016-10-27T07:09:39.824Z,10.99
2016-10-27T07:10:39.843Z,11.02
2016-10-27T07:11:40.106Z,11.06
2016-10-27T07:12:40.088Z,11.02
2016-10-27T07:13:39.765Z,11.13
2016-10-27T07:14:39.748Z,11.07
2016-10-27T07:15:39.736Z,11.07
2016-10-27T07:16:39.723Z,11.1
2016-10-27T07:17:40.027Z,11.02
2016-10-27T07:18:39.689Z,11.11
2016-10-27T07:19:39.985Z,11.1
2016-10-27T07:20:39.983Z,11.09
2016-10-27T07:21:39.643Z,11.11
2016-10-27T07:22:39.627Z,11.1
2016-10-27T07:23:39.735Z,11.14
2016-10-27T07:24:39.943Z,11.16
2016-10-27T07:25:39.588Z,11.11
2016-10-27T07:26:39.577Z,11.17
2016-10-27T07:27:39.558Z,11.2
2016-10-27T07:28:39.542Z,11.2
2016-10-27T07:29:39.527Z,11.2
2016-10-27T07:30:39.517Z,11.2
2016-10-27T07:31:39.526Z,11.28
2016-10-27T07:32:39.812Z,11.34
2016-10-27T07:33:39.469Z,11.28
2016-10-27T07:34:39.455Z,11.24
2016-10-27T07:35:39.450Z,11.29
2016-10-27T07:36:39.478Z,11.31
2016-10-27T07:37:39.415Z,11.28
2016-10-27T07:38:39.396Z,11.35
2016-10-27T07:39:39.389Z,11.29
2016-10-27T07:40:39.685Z,11.31
2016-10-27T07:41:39.362Z,11.27
2016-10-27T07:42:39.342Z,11.31
2016-10-27T07:43:39.328Z,11.34
2016-10-27T07:44:39.368Z,11.29
2016-10-27T07:45:39.297Z,11.35
2016-10-27T07:46:39.297Z,11.28
2016-10-27T07:47:39.280Z,11.31
2016-10-27T07:48:39.266Z,11.28
2016-10-27T07:49:39.269Z,11.34
2016-10-27T07:50:39.565Z,11.35
2016-10-27T07:51:39.235Z,11.43
2016-10-27T07:52:39.522Z,11.34
2016-10-27T07:53:39.185Z,11.46
2016-10-27T07:54:39.169Z,11.52
2016-10-27T07:55:39.477Z,11.5
2016-10-27T07:56:39.141Z,11.52
2016-10-27T07:57:39.126Z,11.52
2016-10-27T07:58:39.115Z,11.56
2016-10-27T07:59:39.130Z,11.53
2016-10-27T08:00:39.122Z,11.57
2016-10-27T08:01:39.388Z,11.54
2016-10-27T08:02:39.061Z,11.54
2016-10-27T08:03:39.048Z,11.57
2016-10-27T08:04:39.033Z,11.65
2016-10-27T08:05:39.023Z,11.67
2016-10-27T08:06:39.314Z,11.68
2016-10-27T08:07:38.989Z,11.68
2016-10-27T08:08:38.976Z,11.83
2016-10-27T08:09:38.960Z,11.67
2016-10-27T08:10:38.948Z,11.78
2016-10-27T08:11:38.931Z,11.83
2016-10-27T08:12:38.925Z,11.8
2016-10-27T08:13:38.901Z,11.78
2016-10-27T08:14:38.900Z,11.8
2016-10-27T08:15:38.889Z,11.82
2016-10-27T08:16:38.869Z,11.78
2016-10-27T08:17:39.170Z,11.83
2016-10-27T08:18:38.841Z,11.74
2016-10-27T08:19:38.829Z,11.89
2016-10-27T08:20:38.817Z,11.87
2016-10-27T08:21:38.795Z,11.8
2016-10-27T08:22:38.787Z,11.78
2016-10-27T08:23:38.770Z,11.78
2016-10-27T08:24:38.756Z,11.8
2016-10-27T08:25:39.052Z,11.77
2016-10-27T08:26:38.724Z,11.82
2016-10-27T08:27:38.713Z,11.89
2016-10-27T08:28:38.699Z,11.83
2016-10-27T08:29:38.728Z,11.94
2016-10-27T08:30:38.672Z,11.93
2016-10-27T08:31:38.663Z,11.87
2016-10-27T08:32:38.646Z,12.02
2016-10-27T08:33:38.628Z,11.96
2016-10-27T08:34:38.927Z,11.99
2016-10-27T08:35:38.606Z,12.01
2016-10-27T08:36:38.591Z,12.08
2016-10-27T08:37:38.585Z,12.08
2016-10-27T08:38:38.561Z,12.06
2016-10-27T08:39:38.549Z,12.09
2016-10-27T08:40:38.539Z,12.02
2016-10-27T08:41:38.523Z,12.11
2016-10-27T08:42:38.513Z,12.11
2016-10-27T08:43:38.503Z,12.09
2016-10-27T08:44:38.486Z,12.09
2016-10-27T08:45:38.797Z,12.06
2016-10-27T08:46:38.462Z,12.02
2016-10-27T08:47:38.757Z,12.09
2016-10-27T08:48:38.773Z,12.02
2016-10-27T08:49:38.733Z,12.09
2016-10-27T08:50:38.729Z,12.11
2016-10-27T08:51:38.700Z,12.23
2016-10-27T08:52:38.702Z,12.16
2016-10-27T08:53:38.370Z,12.16
2016-10-27T08:54:38.352Z,12.13
2016-10-27T08:55:38.334Z,12.2
2016-10-27T08:56:38.335Z,12.3
2016-10-27T08:57:38.315Z,12.23
2016-10-27T08:58:38.296Z,12.21
2016-10-27T08:59:38.604Z,12.23
2016-10-27T09:00:38.264Z,12.34
2016-10-27T09:01:38.256Z,12.42
2016-10-27T09:02:38.242Z,12.33
2016-10-27T09:03:38.288Z,12.39
2016-10-27T09:04:38.214Z,12.49
2016-10-27T09:05:38.200Z,12.44
2016-10-27T09:06:38.511Z,12.51
2016-10-27T09:07:38.175Z,12.67
2016-10-27T09:08:38.164Z,12.75
2016-10-27T09:09:38.152Z,12.75
2016-10-27T09:10:38.148Z,12.79
2016-10-27T09:11:38.127Z,12.84
2016-10-27T09:12:38.116Z,12.93
2016-10-27T09:13:38.105Z,12.96
2016-10-27T09:14:38.397Z,12.87
2016-10-27T09:15:38.076Z,12.85
2016-10-27T09:16:38.062Z,12.88
2016-10-27T09:17:38.073Z,13
2016-10-27T09:18:38.353Z,12.99
2016-10-27T09:19:38.024Z,12.99
2016-10-27T09:20:38.015Z,12.95
2016-10-27T09:21:38.001Z,12.96
2016-10-27T09:22:38.034Z,12.95
2016-10-27T09:23:37.985Z,12.99
2016-10-27T09:24:38.028Z,12.95
2016-10-27T09:25:38.265Z,12.97
2016-10-27T09:26:37.940Z,12.84
2016-10-27T09:27:37.933Z,12.85
2016-10-27T09:28:37.918Z,12.87
2016-10-27T09:29:37.908Z,12.93
2016-10-27T09:30:37.896Z,12.96
2016-10-27T09:31:37.875Z,13.03
2016-10-27T09:32:37.865Z,13.11
2016-10-27T09:33:37.852Z,13.04
2016-10-27T09:34:37.848Z,13.17
2016-10-27T09:35:37.827Z,13.24
2016-10-27T09:36:37.817Z,13.12
2016-10-27T09:37:37.808Z,13.22
2016-10-27T09:38:37.793Z,13.18
2016-10-27T09:39:37.785Z,13.24
2016-10-27T09:40:37.770Z,13.17
2016-10-27T09:41:37.765Z,13.2
2016-10-27T09:42:38.063Z,13.24
2016-10-27T09:43:38.055Z,13.2
2016-10-27T09:44:37.719Z,13.21
2016-10-27T09:45:38.026Z,13.2
2016-10-27T09:46:37.699Z,13.17
2016-10-27T09:47:38.004Z,13.24
2016-10-27T09:48:37.676Z,13.21
2016-10-27T09:49:37.662Z,13.18
2016-10-27T09:50:37.964Z,13.25
2016-10-27T09:51:37.641Z,13.27
2016-10-27T09:52:37.623Z,13.3
2016-10-27T09:53:37.620Z,13.29
2016-10-27T09:54:37.804Z,13.44
2016-10-27T09:55:37.588Z,13.38
2016-10-27T09:56:37.583Z,13.46
2016-10-27T09:57:37.562Z,13.49
2016-10-27T09:58:37.556Z,13.46
2016-10-27T09:59:37.582Z,13.47
2016-10-27T10:00:37.536Z,13.56
2016-10-27T10:01:37.525Z,13.58
2016-10-27T10:02:37.511Z,13.54
2016-10-27T10:03:37.815Z,13.43
2016-10-27T10:04:37.490Z,13.44
2016-10-27T10:05:37.476Z,13.58
2016-10-27T10:06:37.464Z,13.59
2016-10-27T10:07:37.496Z,13.61
2016-10-27T10:08:37.440Z,13.61
2016-10-27T10:09:37.427Z,13.61
2016-10-27T10:10:37.415Z,13.63
2016-10-27T10:11:37.402Z,13.7
2016-10-27T10:12:37.391Z,13.69
2016-10-27T10:13:37.380Z,13.74
2016-10-27T10:14:37.376Z,13.74
2016-10-27T10:15:37.365Z,13.8
2016-10-27T10:16:37.664Z,13.8
2016-10-27T10:17:37.339Z,13.7
2016-10-27T10:18:37.325Z,13.71
2016-10-27T10:19:37.318Z,13.76
2016-10-27T10:20:37.297Z,13.74
2016-10-27T10:21:37.293Z,13.62
2016-10-27T10:22:37.280Z,13.65
2016-10-27T10:23:37.266Z,13.76
2016-10-27T10:24:37.255Z,13.77
2016-10-27T10:25:37.244Z,13.79
2016-10-27T10:26:37.227Z,13.7
2016-10-27T10:27:37.224Z,13.62
2016-10-27T10:28:37.214Z,13.58
2016-10-27T10:29:37.195Z,13.55
2016-10-27T10:30:37.181Z,13.56
2016-10-27T10:31:37.532Z,13.54
2016-10-27T10:32:37.469Z,13.52
2016-10-27T10:33:37.151Z,13.46
2016-10-27T10:34:37.143Z,13.36
2016-10-27T10:35:37.122Z,13.38
2016-10-27T10:36:37.114Z,13.38
2016-10-27T10:37:37.101Z,13.38
2016-10-27T10:38:37.112Z,13.4
2016-10-27T10:39:37.397Z,13.43
2016-10-27T10:40:37.063Z,13.49
2016-10-27T10:41:37.049Z,13.52
2016-10-27T10:42:37.355Z,13.56
2016-10-27T10:43:37.337Z,13.51
2016-10-27T10:44:37.334Z,13.62
2016-10-27T10:45:37.009Z,13.59
2016-10-27T10:46:37.303Z,13.59
2016-10-27T10:47:36.980Z,13.55
2016-10-27T10:48:36.969Z,13.59
2016-10-27T10:49:36.964Z,13.7
2016-10-27T10:50:37.253Z,13.8
2016-10-27T10:51:36.935Z,13.7
2016-10-27T10:52:36.921Z,13.69
2016-10-27T10:53:36.924Z,13.71
2016-10-27T10:54:37.216Z,13.74
2016-10-27T10:55:36.894Z,13.74
2016-10-27T10:56:36.870Z,13.74
2016-10-27T10:57:36.869Z,13.74
2016-10-27T10:58:36.849Z,13.74
2016-10-27T10:59:36.840Z,13.63
2016-10-27T11:00:36.824Z,13.61
2016-10-27T11:01:36.828Z,13.62
2016-10-27T11:02:37.117Z,13.76
2016-10-27T11:03:36.796Z,13.81
2016-10-27T11:04:36.780Z,13.8
2016-10-27T11:05:37.078Z,13.8
2016-10-27T11:06:36.793Z,13.92
2016-10-27T11:07:36.745Z,13.96
2016-10-27T11:08:36.737Z,14.02
2016-10-27T11:09:36.726Z,14.1
2016-10-27T11:10:36.708Z,14.2
2016-10-27T11:11:36.701Z,14.28
2016-10-27T11:12:36.693Z,14.25
2016-10-27T11:13:36.677Z,14.25
2016-10-27T11:14:36.708Z,14.28
2016-10-27T11:15:36.655Z,14.29
2016-10-27T11:16:36.640Z,14.19
2016-10-27T11:17:36.963Z,14.2
2016-10-27T11:18:36.939Z,14.16
2016-10-27T11:19:36.920Z,14.16
2016-10-27T11:20:36.609Z,14.16
2016-10-27T11:21:36.590Z,14.31
2016-10-27T11:22:36.623Z,14.13
2016-10-27T11:23:36.562Z,14.19
2016-10-27T11:24:36.550Z,14.16
2016-10-27T11:25:36.539Z,14.2
2016-10-27T11:26:36.530Z,14.25
2016-10-27T11:27:36.838Z,14.32
2016-10-27T11:28:36.506Z,14.52
2016-10-27T11:29:36.497Z,14.52
2016-10-27T11:30:36.489Z,14.46
2016-10-27T11:31:36.487Z,14.46
2016-10-27T11:32:36.466Z,14.42
2016-10-27T11:33:36.460Z,14.38
2016-10-27T11:34:36.451Z,14.32
2016-10-27T11:35:36.435Z,14.28
2016-10-27T11:36:36.745Z,14.2
2016-10-27T11:37:36.418Z,14.28
2016-10-27T11:38:36.409Z,14.24
2016-10-27T11:39:36.393Z,14.13
2016-10-27T11:40:36.733Z,14.1
2016-10-27T11:41:36.687Z,14.16
2016-10-27T11:42:36.356Z,14.13
2016-10-27T11:43:36.353Z,14.2
2016-10-27T11:44:36.336Z,14.21
2016-10-27T11:45:36.332Z,14.21
2016-10-27T11:46:36.311Z,14.1
2016-10-27T11:47:36.304Z,14.09
2016-10-27T11:48:36.607Z,14.17
2016-10-27T11:49:36.278Z,14.14
2016-10-27T11:50:36.289Z,14.13
2016-10-27T11:51:36.263Z,14.14
2016-10-27T11:52:36.619Z,14.07
2016-10-27T11:53:36.236Z,14.21
2016-10-27T11:54:36.433Z,14.52
2016-10-27T11:55:36.211Z,14.65
2016-10-27T11:56:36.196Z,14.78
2016-10-27T11:57:36.192Z,15.09
2016-10-27T11:58:36.179Z,15.51
2016-10-27T11:59:36.510Z,15.75
2016-10-27T12:00:36.200Z,16.25
2016-10-27T12:01:36.468Z,16.5
2016-10-27T12:02:36.455Z,16.7
2016-10-27T12:03:36.167Z,17.06
2016-10-27T12:04:36.122Z,17.06
2016-10-27T12:05:36.116Z,17.03
2016-10-27T12:06:36.101Z,17.22
2016-10-27T12:07:36.089Z,17.03
2016-10-27T12:08:36.089Z,16.7
2016-10-27T12:09:36.129Z,16.6
2016-10-27T12:10:36.066Z,16.33
2016-10-27T12:11:36.058Z,16.06
2016-10-27T12:12:36.059Z,16.27
2016-10-27T12:13:36.358Z,16.34
2016-10-27T12:14:36.035Z,16.2
2016-10-27T12:15:36.033Z,16.2
2016-10-27T12:16:36.025Z,16.09
2016-10-27T12:17:36.014Z,15.88
2016-10-27T12:18:36.013Z,15.78
2016-10-27T12:19:36.003Z,15.82
2016-10-27T12:20:35.995Z,15.72
2016-10-27T12:21:35.986Z,15.6
2016-10-27T12:22:35.976Z,15.68
2016-10-27T12:23:36.279Z,15.48
2016-10-27T12:24:36.276Z,15.28
2016-10-27T12:25:35.952Z,15.3
2016-10-27T12:26:35.948Z,15.23
2016-10-27T12:27:35.937Z,15.17
2016-10-27T12:28:36.244Z,15.05
2016-10-27T12:29:35.955Z,14.99
2016-10-27T12:30:36.220Z,14.98
2016-10-27T12:31:35.898Z,14.84
2016-10-27T12:32:35.886Z,14.8
2016-10-27T12:33:35.883Z,14.84
2016-10-27T12:34:35.877Z,14.83
2016-10-27T12:35:35.858Z,14.75
2016-10-27T12:36:35.850Z,14.88
2016-10-27T12:37:35.847Z,14.91
2016-10-27T12:38:35.832Z,14.98
2016-10-27T12:39:35.821Z,14.94
2016-10-27T12:40:35.807Z,14.88
2016-10-27T12:41:35.800Z,14.88
2016-10-27T12:42:35.788Z,14.83
2016-10-27T12:43:35.781Z,14.84
2016-10-27T12:44:35.777Z,14.86
2016-10-27T12:45:35.764Z,14.88
2016-10-27T12:46:35.754Z,14.93
2016-10-27T12:47:35.755Z,14.78
2016-10-27T12:48:35.771Z,14.86
2016-10-27T12:49:36.035Z,14.75
2016-10-27T12:50:35.716Z,14.75
2016-10-27T12:51:35.746Z,14.86
2016-10-27T12:52:35.728Z,14.98
2016-10-27T12:53:35.678Z,14.99
2016-10-27T12:54:35.668Z,14.84
2016-10-27T12:55:35.973Z,14.78
2016-10-27T12:56:35.665Z,14.8
2016-10-27T12:57:35.635Z,14.78
2016-10-27T12:58:35.625Z,14.68
2016-10-27T12:59:35.627Z,14.81
2016-10-27T13:00:35.620Z,14.69